createdAt,value
2019-06-20T00:00:46.254Z,3.00
2019-06-20T00:03:15.043Z,3.58
2019-06-20T00:05:43.787Z,3.53
2019-06-20T00:08:12.609Z,3.27
2019-06-20T00:10:41.276Z,3.50
2019-06-20T00:13:10.155Z,3.55
2019-06-20T00:15:38.881Z,4.07
2019-06-20T00:18:07.757Z,4.20
2019-06-20T00:20:36.282Z,3.30
2019-06-20T00:23:05.270Z,3.25
2019-06-20T00:25:33.846Z,4.27
2019-06-20T00:28:02.827Z,3.72
2019-06-20T00:30:31.558Z,3.87
2019-06-20T00:33:00.766Z,3.95
2019-06-20T00:35:29.285Z,3.53
2019-06-20T00:37:58.274Z,3.98
2019-06-20T00:40:26.937Z,3.60
2019-06-20T00:42:55.821Z,3.52
2019-06-20T00:45:24.917Z,3.77
2019-06-20T00:47:53.489Z,3.72
2019-06-20T00:50:22.011Z,3.43
2019-06-20T00:52:50.866Z,3.58
2019-06-20T00:55:19.483Z,4.30
2019-06-20T00:57:48.393Z,3.72
2019-06-20T01:00:17.057Z,3.70
2019-06-20T01:02:45.893Z,3.45
2019-06-20T01:05:14.485Z,4.00
2019-06-20T01:07:43.405Z,4.08
2019-06-20T01:10:12.326Z,3.73
2019-06-20T01:12:41.127Z,3.80
2019-06-20T01:15:10.205Z,4.10
2019-06-20T01:17:38.810Z,4.05
2019-06-20T01:20:08.242Z,4.12
2019-06-20T01:22:38.303Z,3.85
2019-06-20T01:25:07.090Z,3.87
2019-06-20T01:27:35.926Z,4.22
2019-06-20T01:30:05.340Z,4.28
2019-06-20T01:32:34.193Z,3.80
2019-06-20T01:35:02.771Z,4.10
2019-06-20T01:37:31.322Z,3.67
2019-06-20T01:39:59.898Z,3.87
2019-06-20T01:42:28.481Z,4.10
2019-06-20T01:44:57.011Z,4.40
2019-06-20T01:47:25.593Z,4.05
2019-06-20T01:49:54.402Z,4.25
2019-06-20T01:52:23.814Z,4.28
2019-06-20T01:54:52.345Z,4.00
2019-06-20T01:57:20.878Z,3.92
2019-06-20T01:59:49.728Z,4.47
2019-06-20T02:02:18.310Z,4.57
2019-06-20T02:04:47.287Z,4.00
2019-06-20T02:07:15.908Z,4.07
2019-06-20T02:09:44.433Z,4.70
2019-06-20T02:12:13.039Z,4.30
2019-06-20T02:14:41.634Z,4.50
2019-06-20T02:37:16.355Z,4.20
2019-06-20T02:39:44.951Z,4.67
2019-06-20T02:42:13.660Z,4.58
2019-06-20T02:44:42.230Z,4.95
2019-06-20T02:47:11.048Z,4.87
2019-06-20T02:49:39.666Z,4.42
2019-06-20T02:52:08.249Z,4.97
2019-06-20T02:54:36.766Z,5.23
2019-06-20T02:57:05.346Z,4.72
2019-06-20T02:59:34.185Z,4.03
2019-06-20T03:02:02.722Z,5.13
2019-06-20T03:04:31.690Z,4.67
2019-06-20T03:07:00.270Z,4.87
2019-06-20T03:09:29.213Z,4.75
2019-06-20T03:11:57.739Z,4.93
2019-06-20T03:14:26.910Z,4.90
2019-06-20T03:16:55.509Z,5.05
2019-06-20T03:19:24.306Z,4.90
2019-06-20T03:21:52.909Z,5.33
2019-06-20T03:24:21.842Z,5.17
2019-06-20T03:26:50.421Z,5.30
2019-06-20T03:29:19.285Z,5.03
2019-06-20T03:31:47.875Z,5.23
2019-06-20T03:34:16.819Z,5.20
2019-06-20T03:36:45.426Z,5.13
2019-06-20T03:39:14.381Z,4.87
2019-06-20T03:41:43.002Z,4.87
2019-06-20T03:44:11.909Z,5.35
2019-06-20T03:46:40.510Z,4.97
2019-06-20T03:49:10.161Z,5.50
2019-06-20T03:51:38.665Z,5.47
2019-06-20T03:54:07.185Z,5.50
2019-06-20T03:56:35.765Z,5.00
2019-06-20T03:59:04.597Z,5.15
2019-06-20T04:01:33.117Z,5.47
2019-06-20T04:04:02.112Z,5.25
2019-06-20T04:06:30.731Z,5.87
2019-06-20T04:08:59.622Z,5.70
2019-06-20T04:11:28.137Z,5.13
2019-06-20T04:13:57.147Z,5.95
2019-06-20T04:16:25.737Z,5.43
2019-06-20T04:18:54.609Z,5.40
2019-06-20T04:21:23.221Z,5.40
2019-06-20T04:23:51.802Z,5.90
2019-06-20T04:26:20.700Z,5.70
2019-06-20T04:28:49.289Z,5.90
2019-06-20T04:31:18.218Z,5.87
2019-06-20T04:33:47.787Z,5.27
2019-06-20T04:36:16.410Z,5.65
2019-06-20T04:38:44.997Z,5.70
2019-06-20T04:41:13.583Z,5.80
2019-06-20T04:43:42.189Z,6.10
2019-06-20T04:46:25.550Z,5.20
2019-06-20T04:48:54.173Z,6.13
2019-06-20T04:51:22.696Z,5.42
2019-06-20T04:53:51.266Z,5.93
2019-06-20T04:56:19.883Z,6.12
2019-06-20T04:58:48.477Z,6.10
2019-06-20T05:01:17.014Z,6.90
2019-06-20T05:03:45.582Z,6.30
2019-06-20T05:06:14.209Z,6.17
2019-06-20T05:08:42.808Z,7.40
2019-06-20T05:11:11.395Z,5.78
2019-06-20T05:13:40.017Z,7.73
2019-06-20T05:16:08.594Z,6.67
2019-06-20T05:18:37.186Z,8.97
2019-06-20T05:21:05.786Z,7.58
2019-06-20T05:23:34.369Z,10.77
2019-06-20T05:26:02.978Z,10.85
2019-06-20T05:28:31.600Z,14.80
2019-06-20T05:31:00.198Z,14.35
2019-06-20T05:33:28.786Z,11.83
2019-06-20T05:35:57.404Z,13.98
2019-06-20T05:38:26.009Z,9.57
2019-06-20T05:40:54.594Z,9.35
2019-06-20T05:43:23.135Z,8.53
2019-06-20T05:46:08.048Z,8.63
2019-06-20T05:48:21.930Z,8.93
2019-06-20T05:50:50.475Z,8.63
2019-06-20T05:53:19.407Z,9.58
2019-06-20T05:55:48.009Z,9.40
2019-06-20T05:58:16.650Z,9.60
2019-06-20T06:00:45.230Z,9.77
2019-06-20T06:03:13.911Z,9.00
2019-06-20T06:05:42.733Z,9.63
2019-06-20T06:08:11.241Z,9.90
2019-06-20T06:10:41.316Z,10.55
2019-06-20T06:13:09.978Z,11.50
2019-06-20T06:15:38.561Z,10.53
2019-06-20T06:18:07.173Z,10.20
2019-06-20T06:20:36.090Z,10.88
2019-06-20T06:23:04.670Z,11.07
2019-06-20T06:25:33.914Z,10.60
2019-06-20T06:28:02.467Z,10.83
2019-06-20T06:30:31.722Z,10.80
2019-06-20T06:33:00.295Z,9.90
2019-06-20T06:35:29.385Z,10.65
2019-06-20T06:37:57.982Z,10.17
2019-06-20T06:40:27.425Z,10.88
2019-06-20T06:42:56.102Z,10.47
2019-06-20T06:45:25.019Z,10.43
2019-06-20T06:47:53.714Z,10.77
2019-06-20T06:50:23.208Z,10.85
2019-06-20T06:52:51.809Z,10.53
2019-06-20T06:55:20.755Z,10.50
2019-06-20T06:57:49.366Z,11.20
2019-06-20T07:00:18.634Z,11.12
2019-06-20T07:02:47.336Z,10.27
2019-06-20T07:05:16.667Z,10.65
2019-06-20T07:07:45.263Z,10.03
2019-06-20T07:10:14.401Z,10.10
2019-06-20T07:12:43.002Z,9.50
2019-06-20T07:15:12.875Z,10.27
2019-06-20T07:17:41.491Z,10.47
2019-06-20T07:20:10.199Z,9.50
2019-06-20T07:22:39.366Z,9.50
2019-06-20T07:25:08.457Z,9.53
2019-06-20T07:27:37.074Z,8.73
2019-06-20T07:30:06.006Z,9.07
2019-06-20T07:32:35.124Z,9.10
2019-06-20T07:35:03.777Z,8.50
2019-06-20T07:37:32.302Z,8.20
2019-06-20T07:40:00.910Z,8.73
2019-06-20T07:42:30.853Z,8.43
2019-06-20T07:44:59.439Z,7.90
2019-06-20T07:47:28.602Z,8.20
2019-06-20T07:49:57.199Z,7.60
2019-06-20T07:52:26.099Z,8.30
2019-06-20T07:54:54.789Z,7.93
2019-06-20T07:57:23.741Z,8.13
2019-06-20T07:59:52.328Z,8.33
2019-06-20T08:02:21.381Z,7.90
2019-06-20T08:04:49.963Z,8.27
2019-06-20T08:07:19.539Z,6.97
2019-06-20T08:09:48.142Z,6.83
2019-06-20T08:12:16.637Z,7.25
2019-06-20T08:14:45.141Z,7.50
2019-06-20T08:17:14.058Z,7.25
2019-06-20T08:19:42.633Z,6.77
2019-06-20T08:22:11.550Z,7.25
2019-06-20T08:24:40.077Z,6.40
2019-06-20T08:27:08.597Z,6.83
2019-06-20T08:29:37.408Z,7.08
2019-06-20T08:32:06.610Z,6.90
2019-06-20T08:34:35.191Z,6.87
2019-06-20T08:37:04.374Z,5.78
2019-06-20T08:39:32.981Z,6.83
2019-06-20T08:42:02.116Z,6.30
2019-06-20T08:44:30.762Z,6.00
2019-06-20T08:47:00.653Z,6.00
2019-06-20T08:49:33.454Z,6.30
2019-06-20T08:52:03.422Z,6.00
2019-06-20T08:54:32.078Z,5.77
2019-06-20T08:57:00.877Z,5.62
2019-06-20T08:59:29.568Z,5.78
2019-06-20T09:02:00.061Z,5.90
2019-06-20T09:04:28.397Z,5.70
2019-06-20T09:06:58.604Z,5.45
2019-06-20T09:09:27.689Z,5.75
2019-06-20T09:11:56.527Z,5.80
2019-06-20T09:14:25.641Z,4.97
2019-06-20T09:16:54.955Z,5.53
2019-06-20T09:19:23.534Z,5.90
2019-06-20T09:21:53.920Z,5.67
2019-06-20T09:24:22.546Z,5.67
2019-06-20T09:26:52.325Z,5.03
2019-06-20T09:29:21.467Z,5.08
2019-06-20T09:31:52.417Z,6.30
2019-06-20T09:34:20.266Z,5.30
2019-06-20T09:36:49.217Z,5.47
2019-06-20T09:39:17.827Z,5.47
2019-06-20T09:41:46.768Z,4.67
2019-06-20T09:44:15.393Z,5.90
2019-06-20T09:46:43.981Z,4.80
2019-06-20T09:49:12.514Z,5.80
2019-06-20T09:51:41.115Z,5.70
2019-06-20T09:54:09.954Z,5.03
2019-06-20T09:56:38.477Z,5.60
2019-06-20T09:59:07.497Z,5.20
2019-06-20T10:01:36.010Z,5.87
2019-06-20T10:04:06.653Z,5.10
2019-06-20T10:06:35.232Z,4.67
2019-06-20T10:09:05.152Z,4.20
2019-06-20T10:11:34.185Z,4.40
2019-06-20T10:14:02.866Z,4.80
2019-06-20T10:16:45.041Z,5.72
2019-06-20T10:19:01.874Z,5.25
2019-06-20T10:21:30.445Z,4.90
2019-06-20T10:23:58.977Z,4.90
2019-06-20T10:26:27.549Z,4.20
2019-06-20T10:28:57.337Z,4.72
2019-06-20T10:31:26.053Z,4.27
2019-06-20T10:33:54.559Z,4.65
2019-06-20T10:36:23.161Z,5.10
2019-06-20T10:38:52.643Z,4.50
2019-06-20T10:41:21.196Z,4.57
2019-06-20T10:43:49.845Z,4.20
2019-06-20T10:46:18.439Z,4.75
2019-06-20T10:48:47.987Z,4.27
2019-06-20T10:51:35.897Z,4.40
2019-06-20T10:54:04.570Z,4.53
2019-06-20T10:56:33.161Z,4.45
2019-06-20T10:59:02.058Z,3.92
2019-06-20T11:01:30.641Z,4.90
2019-06-20T11:04:00.139Z,4.73
2019-06-20T11:06:28.713Z,3.67
2019-06-20T11:08:57.309Z,4.43
2019-06-20T11:11:25.887Z,4.33
2019-06-20T11:13:54.768Z,4.20
2019-06-20T11:16:23.342Z,3.73
2019-06-20T11:18:52.305Z,4.28
2019-06-20T11:21:20.935Z,3.77
2019-06-20T11:23:49.845Z,4.08
2019-06-20T11:26:18.452Z,4.40
2019-06-20T11:28:48.653Z,3.98
2019-06-20T11:31:17.297Z,4.22
2019-06-20T11:33:45.842Z,4.37
2019-06-20T11:36:14.429Z,3.90
2019-06-20T11:38:42.937Z,3.87
2019-06-20T11:41:11.530Z,4.20
2019-06-20T11:43:40.341Z,4.33
2019-06-20T11:46:08.841Z,3.90
2019-06-20T11:48:38.475Z,4.12
2019-06-20T11:51:07.030Z,3.73
2019-06-20T11:53:36.554Z,4.37
2019-06-20T11:56:05.196Z,3.90
2019-06-20T11:58:33.722Z,4.17
2019-06-20T12:01:04.130Z,4.47
2019-06-20T12:03:32.825Z,4.67
2019-06-20T12:06:01.419Z,4.37
2019-06-20T12:08:30.025Z,4.28
2019-06-20T12:10:58.589Z,4.30
2019-06-20T12:13:28.147Z,4.78
2019-06-20T12:15:56.666Z,4.17
2019-06-20T12:18:25.653Z,4.87
2019-06-20T12:20:54.170Z,4.83
2019-06-20T12:23:23.281Z,4.47
2019-06-20T12:25:51.866Z,4.63
2019-06-20T12:28:21.360Z,4.37
2019-06-20T12:30:50.494Z,4.83
2019-06-20T12:33:19.137Z,4.10
2019-06-20T12:35:48.715Z,4.30
2019-06-20T12:38:17.312Z,5.10
2019-06-20T12:40:46.226Z,4.58
2019-06-20T12:43:14.804Z,4.53
2019-06-20T12:45:43.953Z,5.15
2019-06-20T12:48:12.682Z,5.07
2019-06-20T12:50:42.982Z,4.80
2019-06-20T12:53:11.601Z,3.93
2019-06-20T12:55:40.403Z,4.87
2019-06-20T12:58:08.990Z,4.20
2019-06-20T13:00:39.096Z,4.27
2019-06-20T13:03:07.918Z,4.20
2019-06-20T13:05:36.501Z,4.50
2019-06-20T13:08:05.106Z,4.63
2019-06-20T13:10:33.638Z,4.40
2019-06-20T13:13:02.147Z,4.07
2019-06-20T13:15:30.724Z,5.67
2019-06-20T13:17:59.597Z,5.12
2019-06-20T13:20:28.177Z,4.60
2019-06-20T13:22:56.757Z,4.90
2019-06-20T13:25:25.362Z,4.60
2019-06-20T13:27:53.934Z,4.60
2019-06-20T13:30:22.541Z,4.57
2019-06-20T13:32:51.062Z,4.67
2019-06-20T13:35:19.861Z,4.40
2019-06-20T13:37:49.978Z,4.67
2019-06-20T13:40:20.917Z,4.10
2019-06-20T13:42:50.337Z,4.37
2019-06-20T13:45:19.637Z,4.90
2019-06-20T13:47:48.217Z,4.93
2019-06-20T13:50:16.732Z,5.30
2019-06-20T13:52:46.767Z,4.70
2019-06-20T13:55:15.631Z,4.60
2019-06-20T13:57:45.268Z,4.92
2019-06-20T14:00:14.590Z,4.60
2019-06-20T14:02:45.018Z,5.22
2019-06-20T14:05:13.715Z,4.70
2019-06-20T14:07:46.726Z,4.67
2019-06-20T14:10:12.528Z,4.93
2019-06-20T14:12:41.876Z,4.03
2019-06-20T14:15:11.454Z,5.22
2019-06-20T14:17:41.520Z,4.33
2019-06-20T14:20:10.762Z,4.17
2019-06-20T14:22:39.284Z,4.83
2019-06-20T14:25:08.237Z,3.95
2019-06-20T14:27:36.769Z,3.97
2019-06-20T14:30:05.908Z,3.98
2019-06-20T14:32:34.489Z,4.20
2019-06-20T14:35:03.950Z,4.50
2019-06-20T14:37:32.538Z,3.90
2019-06-20T14:40:01.424Z,4.10
2019-06-20T14:42:30.045Z,4.37
2019-06-20T14:44:58.594Z,3.97
2019-06-20T14:47:27.197Z,3.80
2019-06-20T14:49:55.791Z,4.70
2019-06-20T14:52:24.428Z,3.75
2019-06-20T14:54:53.998Z,4.25
2019-06-20T14:57:22.715Z,4.07
2019-06-20T14:59:52.567Z,4.30
2019-06-20T15:02:29.346Z,4.47
2019-06-20T15:04:52.584Z,3.67
2019-06-20T15:07:21.937Z,4.00
2019-06-20T15:09:51.324Z,4.30
2019-06-20T15:12:20.049Z,4.73
2019-06-20T15:14:49.809Z,4.03
2019-06-20T15:17:18.859Z,3.92
2019-06-20T15:19:47.809Z,4.00
2019-06-20T15:22:17.486Z,3.98
2019-06-20T15:24:48.580Z,4.00
2019-06-20T15:27:16.276Z,4.20
2019-06-20T15:29:47.047Z,4.10
2019-06-20T15:32:15.094Z,4.72
2019-06-20T15:34:43.673Z,4.42
2019-06-20T15:37:12.220Z,3.57
2019-06-20T15:39:41.026Z,4.87
2019-06-20T15:42:09.575Z,4.17
2019-06-20T15:44:38.071Z,4.20
2019-06-20T15:47:06.741Z,4.90
2019-06-20T15:49:35.349Z,4.28
2019-06-20T15:52:03.883Z,4.20
2019-06-20T15:54:32.403Z,3.97
2019-06-20T15:57:01.018Z,4.28
2019-06-20T15:59:29.606Z,4.43
2019-06-20T16:01:58.282Z,4.40
2019-06-20T16:04:26.787Z,3.60
2019-06-20T16:06:55.373Z,5.05
2019-06-20T16:09:24.041Z,5.00
2019-06-20T16:11:53.283Z,4.40
2019-06-20T16:14:21.946Z,4.50
2019-06-20T16:16:50.834Z,3.90
2019-06-20T16:19:19.829Z,3.90
2019-06-20T16:21:48.444Z,4.20
2019-06-20T16:24:18.004Z,4.40
2019-06-20T16:26:46.591Z,4.23
2019-06-20T16:29:15.249Z,4.20
2019-06-20T16:31:43.841Z,4.15
2019-06-20T16:34:12.463Z,3.90
2019-06-20T16:36:41.043Z,3.70
2019-06-20T16:39:09.642Z,3.65
2019-06-20T16:41:38.398Z,3.72
2019-06-20T16:44:06.985Z,3.90
2019-06-20T16:46:35.824Z,4.62
2019-06-20T16:49:04.411Z,4.23
2019-06-20T16:51:33.329Z,3.75
2019-06-20T16:54:01.898Z,3.87
2019-06-20T16:56:30.861Z,3.65
2019-06-20T16:58:59.412Z,3.53
2019-06-20T17:01:27.984Z,3.40
2019-06-20T17:03:56.625Z,3.42
2019-06-20T17:06:25.903Z,3.40
2019-06-20T17:08:54.495Z,3.43
2019-06-20T17:11:23.478Z,3.25
2019-06-20T17:13:52.077Z,3.40
2019-06-20T17:16:21.561Z,4.08
2019-06-20T17:18:50.169Z,3.70
2019-06-20T17:21:18.849Z,4.12
2019-06-20T17:23:47.456Z,3.77
2019-06-20T17:26:16.297Z,3.52
2019-06-20T17:28:44.829Z,4.00
2019-06-20T17:31:13.653Z,3.30
2019-06-20T17:33:56.893Z,3.50
2019-06-20T17:36:18.176Z,3.47
2019-06-20T17:38:42.650Z,3.77
2019-06-20T17:41:11.232Z,4.22
2019-06-20T17:43:39.833Z,3.80
2019-06-20T17:46:08.429Z,4.45
2019-06-20T17:48:37.021Z,3.33
2019-06-20T17:51:05.534Z,3.22
2019-06-20T17:53:34.091Z,3.70
2019-06-20T17:56:03.886Z,3.80
2019-06-20T17:58:32.510Z,3.58
2019-06-20T18:01:01.048Z,4.10
2019-06-20T18:03:29.676Z,4.70
2019-06-20T18:05:58.269Z,4.93
2019-06-20T18:08:26.817Z,4.30
2019-06-20T18:10:55.769Z,4.60
2019-06-20T18:13:24.355Z,4.15
2019-06-20T18:15:52.969Z,3.90
2019-06-20T18:18:21.493Z,4.30
2019-06-20T18:20:50.074Z,3.87
2019-06-20T18:23:18.755Z,3.70
2019-06-20T18:25:47.330Z,3.83
2019-06-20T18:28:15.845Z,3.72
2019-06-20T18:30:44.602Z,4.03
2019-06-20T18:33:13.291Z,3.67
2019-06-20T18:35:41.953Z,3.77
2019-06-20T18:38:10.482Z,3.73
2019-06-20T18:40:39.189Z,4.00
2019-06-20T18:43:07.797Z,3.42
2019-06-20T18:45:36.418Z,3.40
2019-06-20T18:48:04.999Z,3.50
2019-06-20T18:50:33.599Z,3.25
2019-06-20T18:53:02.201Z,3.30
2019-06-20T18:55:30.807Z,2.80
2019-06-20T18:57:59.409Z,3.20
2019-06-20T19:00:34.690Z,2.53
2019-06-20T19:02:58.339Z,3.07
2019-06-20T19:05:27.365Z,3.17
2019-06-20T19:07:56.022Z,3.00
2019-06-20T19:10:25.431Z,3.60
2019-06-20T19:12:54.190Z,3.20
2019-06-20T19:15:23.981Z,3.40
2019-06-20T19:17:52.589Z,2.70
2019-06-20T19:20:21.350Z,3.37
2019-06-20T19:22:49.950Z,2.73
2019-06-20T19:25:18.488Z,2.80
2019-06-20T19:27:47.193Z,2.80
2019-06-20T19:30:16.788Z,3.10
2019-06-20T19:32:45.378Z,2.83
2019-06-20T19:35:14.754Z,3.05
2019-06-20T19:37:43.337Z,3.47
2019-06-20T19:40:12.475Z,2.90
2019-06-20T19:42:41.077Z,2.60
2019-06-20T19:45:10.631Z,3.50
2019-06-20T19:47:39.430Z,3.27
2019-06-20T19:50:08.233Z,3.10
2019-06-20T19:52:37.050Z,2.67
2019-06-20T19:55:06.538Z,2.80
2019-06-20T19:57:35.224Z,2.60
2019-06-20T20:00:04.439Z,3.10
2019-06-20T20:02:33.182Z,2.77
2019-06-20T20:05:17.442Z,2.60
2019-06-20T20:07:32.251Z,2.83
2019-06-20T20:10:01.303Z,2.95
2019-06-20T20:12:31.000Z,2.67
2019-06-20T20:14:59.616Z,2.55
2019-06-20T20:17:28.247Z,2.60
2019-06-20T20:19:56.868Z,2.77
2019-06-20T20:22:25.504Z,2.40
2019-06-20T20:24:54.151Z,3.08
2019-06-20T20:27:22.792Z,2.50
2019-06-20T20:29:51.426Z,2.80
2019-06-20T20:32:20.009Z,2.40
2019-06-20T20:34:48.696Z,2.50
2019-06-20T20:37:18.391Z,2.30
2019-06-20T20:39:47.032Z,2.63
2019-06-20T20:42:17.768Z,2.80
2019-06-20T20:44:45.907Z,2.87
2019-06-20T20:47:14.538Z,2.70
2019-06-20T20:49:43.188Z,2.50
2019-06-20T20:52:11.847Z,2.70
2019-06-20T20:54:40.489Z,2.60
2019-06-20T20:57:09.115Z,2.52
2019-06-20T20:59:37.740Z,2.30
2019-06-20T21:02:06.443Z,2.50
2019-06-20T21:04:35.063Z,2.30
2019-06-20T21:07:03.779Z,2.23
2019-06-20T21:09:32.411Z,2.60
2019-06-20T21:12:01.763Z,2.20
2019-06-20T21:14:30.393Z,2.20
2019-06-20T21:16:59.012Z,2.40
2019-06-20T21:19:28.227Z,2.17
2019-06-20T21:21:56.892Z,2.50
2019-06-20T21:24:25.525Z,2.53
2019-06-20T21:26:54.144Z,2.50
2019-06-20T21:29:22.796Z,2.30
2019-06-20T21:31:51.402Z,2.20
2019-06-20T21:34:20.343Z,2.20
2019-06-20T21:36:48.975Z,2.10
2019-06-20T21:39:17.626Z,2.20
2019-06-20T21:41:46.850Z,2.37
2019-06-20T21:44:15.501Z,2.30
2019-06-20T21:46:44.237Z,2.02
2019-06-20T21:49:12.893Z,2.45
2019-06-20T21:51:44.514Z,2.20
2019-06-20T21:54:11.967Z,2.00
2019-06-20T21:56:40.663Z,2.13
2019-06-20T21:59:09.304Z,2.22
2019-06-20T22:01:38.416Z,2.50
2019-06-20T22:04:07.485Z,2.15
2019-06-20T22:06:36.113Z,2.17
2019-06-20T22:09:06.471Z,2.30
2019-06-20T22:11:36.716Z,2.03
2019-06-20T22:14:05.906Z,2.25
2019-06-20T22:16:34.527Z,2.47
2019-06-20T22:19:04.577Z,2.27
2019-06-20T22:21:33.163Z,1.90
2019-06-20T22:24:01.895Z,1.93
2019-06-20T22:26:30.643Z,2.15
2019-06-20T22:28:59.395Z,2.10
2019-06-20T22:31:28.028Z,2.03
2019-06-20T22:33:56.687Z,1.90
2019-06-20T22:36:39.064Z,2.10
2019-06-20T22:38:55.597Z,2.23
2019-06-20T22:41:24.295Z,2.10
2019-06-20T22:43:52.926Z,2.05
2019-06-20T22:46:21.585Z,1.92
2019-06-20T22:48:50.191Z,2.13
2019-06-20T22:51:18.823Z,2.10
2019-06-20T22:53:47.459Z,2.08
2019-06-20T22:56:16.085Z,1.97
2019-06-20T22:58:44.776Z,1.80
2019-06-20T23:01:13.984Z,2.12
2019-06-20T23:03:42.608Z,1.70
2019-06-20T23:06:12.288Z,2.30
2019-06-20T23:08:40.916Z,1.90
2019-06-20T23:11:09.519Z,1.97
2019-06-20T23:13:38.152Z,1.90
2019-06-20T23:16:06.812Z,1.60
2019-06-20T23:18:36.624Z,1.90
2019-06-20T23:21:05.367Z,2.10
2019-06-20T23:23:34.085Z,1.87
2019-06-20T23:26:04.376Z,2.00
2019-06-20T23:28:32.996Z,1.93
2019-06-20T23:31:01.640Z,2.07
2019-06-20T23:33:30.247Z,1.98
2019-06-20T23:35:58.868Z,1.72
2019-06-20T23:38:27.539Z,2.08
2019-06-20T23:40:56.159Z,2.02
2019-06-20T23:43:24.796Z,1.80
2019-06-20T23:45:53.420Z,1.90
2019-06-20T23:48:22.039Z,2.13
2019-06-20T23:50:50.967Z,2.00
2019-06-20T23:53:24.868Z,1.90
2019-06-20T23:55:53.544Z,1.63
2019-06-20T23:58:22.167Z,1.80
